Biwabik, Minnesota
Current Conditions -  °F | °C
As of 10:11 AM on Thursday 23 Oct 2014 (Local Time) from KEVM Reporting Station
Haze Haze  
Wind Chill: 42°   Ceiling: 300
Heat Index: 46°   Visibility: 2.5mi
Dew Point: 46°   Wind: 8mph
Humidity: 100%   Direction: 220°SW
Pressure: 29.96"   Gusts: NA
Location:  47.53°N, 92.34°W
Report Text: KEVM 231511Z AUTO 22007KT 2 1/2SM BR OVC003 08/08 A2996 RMK AO2
Loading
Personal Weather Stations






























Interactive Weather Map
Tropical Storm Tracking
New forecast layout! Learn more

10-Day Weather Forecast

Advertisements
Track Severe Weather on mobile